1998 RON (1998001S09195)


On this page: IBTrACS data - Map and Plots - Positions - Intensities - Original source data

Summary

Start Jan 1
End Jan 9
Basin SP
LMI 145 kt
Sources jtwc_sh
nadi
wellington
neumann
In WMO? Yes
Previous storm 1998 SELWYN (SI)
Previous in basin 1998 SID (SI)
Concurrent storms 1998 SUSAN (SP)
1998 SELWYN (SI)
1998 RON (SP)
1998 KATRINA (SP)
Next in basin 1998 KATRINA (SP)
Next storm 1998 KATRINA (SP)

top of page IBTrACS Data: File Access

top of page HURSAT Data: File Access

Image of storm

top of page Plots:

Map of storm track will not appear if FTP is down
Time series of cyclone Maximum Sustained Wind will not appear if FTP is down
Time series of cyclone Minimum Central Pressure will not appear if FTP is down

top of page Track Data:Position

jtwc_sh nadi wellington neumann
Date Lat Lon Lat Lon Lat Lon Lat Lon
1998-01-01 06:00:00 -9.0 -165.5 -9.0 -165.5
1998-01-01 12:00:00 -9.5 -166.2 -8.8 -165.4 -8.8 -165.4 -9.5 -166.2
1998-01-01 18:00:00 -9.6 -166.6 -9.2 -167.2 -9.2 -167.2 -9.6 -166.6
1998-01-02 00:00:00 -9.6 -167.5 -9.6 -167.7 -9.6 -167.7 -9.6 -167.5
1998-01-02 06:00:00 -9.8 -168.4 -9.9 -168.3 -9.9 -168.3 -9.8 -168.4
1998-01-02 12:00:00 -10.2 -169.3 -10.1 -169.2 -10.1 -169.2 -10.2 -169.3
1998-01-02 18:00:00 -10.5 -170.2 -10.4 -170.1 -10.4 -170.1 -10.5 -170.2
1998-01-03 00:00:00 -10.8 -171.0 -10.8 -170.9 -10.8 -170.9 -10.8 -171.0
1998-01-03 06:00:00 -11.1 -171.6 -11.2 -171.6 -11.2 -171.6 -11.1 -171.6
1998-01-03 12:00:00 -11.2 -172.2 -11.5 -172.3 -11.5 -172.3 -11.2 -172.2
1998-01-03 18:00:00 -11.2 -172.6 -11.4 -172.8 -11.4 -172.8 -11.2 -172.6
1998-01-04 00:00:00 -11.2 -172.9 -11.3 -173.0 -11.3 -173.0 -11.2 -172.9
1998-01-04 06:00:00 -11.4 -173.3 -11.4 -173.3 -11.4 -173.3 -11.4 -173.3
1998-01-04 12:00:00 -11.7 -173.7 -11.9 -173.7 -11.9 -173.7 -11.7 -173.7
1998-01-04 18:00:00 -12.0 -174.3 -12.2 -174.3 -12.2 -174.3 -12.0 -174.3
1998-01-05 00:00:00 -12.3 -174.9 -12.3 -174.9 -12.3 -174.9 -12.3 -174.9
1998-01-05 06:00:00 -12.5 -175.2 -12.5 -175.3 -12.5 -175.3 -12.5 -175.2
1998-01-05 12:00:00 -12.9 -175.5 -12.8 -175.5 -12.8 -175.5 -12.9 -175.5
1998-01-05 18:00:00 -13.4 -175.7 -13.4 -175.7 -13.4 -175.7 -13.4 -175.7
1998-01-06 00:00:00 -13.9 -175.8 -13.9 -175.8 -13.9 -175.8 -13.9 -175.8
1998-01-06 06:00:00 -14.4 -175.7 -14.5 -175.9 -14.5 -175.9 -14.4 -175.7
1998-01-06 12:00:00 -15.0 -175.5 -15.0 -175.7 -15.0 -175.7 -15.0 -175.5
1998-01-06 18:00:00 -15.7 -175.1 -15.5 -175.6 -15.5 -175.6 -15.7 -175.1
1998-01-07 00:00:00 -16.5 -174.5 -16.3 -174.8 -16.3 -174.8 -16.5 -174.5
1998-01-07 06:00:00 -17.3 -173.8 -17.0 -174.0 -17.0 -174.0 -17.3 -173.8
jtwc_sh nadi wellington neumann
1998-01-07 12:00:00 -18.2 -173.2 -18.0 -173.2 -18.0 -173.2 -18.2 -173.2
1998-01-07 18:00:00 -19.4 -172.6 -19.4 -172.7 -19.4 -172.7 -19.4 -172.6
1998-01-08 00:00:00 -20.9 -171.9 -21.0 -172.0 -21.0 -172.0 -20.9 -171.9
1998-01-08 06:00:00 -22.7 -171.0 -22.6 -170.6 -22.6 -170.6 -22.7 -171.0
1998-01-08 12:00:00 -25.0 -170.3 -25.0 -170.0 -25.0 -170.0 -25.0 -170.3
1998-01-08 18:00:00 -27.2 -169.3 -28.2 -168.5 -27.2 -169.3
1998-01-09 00:00:00 -29.3 -168.0 -29.3 -168.0

top of pageTrack Data:Intensity

jtwc_sh nadi wellington neumann
Date Wind Pres Wind Pres Wind Pres Wind Pres
1998-01-01 06:00:00 25. 999. 25. 999.
1998-01-01 12:00:00 25. 30. 998. 30. 998. 25.
1998-01-01 18:00:00 25. 30. 997. 30. 997. 25.
1998-01-02 00:00:00 30. 40. 990. 40. 990. 30.
1998-01-02 06:00:00 30. 45. 987. 45. 987. 30.
1998-01-02 12:00:00 30. 50. 985. 50. 985. 30.
1998-01-02 18:00:00 35. 55. 980. 55. 980. 35.
1998-01-03 00:00:00 40. 60. 977. 60. 977. 40.
1998-01-03 06:00:00 50. 60. 975. 60. 975. 50.
1998-01-03 12:00:00 65. 65. 970. 65. 970. 65.
1998-01-03 18:00:00 75. 70. 965. 70. 965. 75.
1998-01-04 00:00:00 85. 75. 960. 75. 960. 85.
1998-01-04 06:00:00 95. 80. 955. 80. 955. 95.
1998-01-04 12:00:00 110. 85. 945. 85. 945. 110.
1998-01-04 18:00:00 120. 100. 925. 100. 925. 120.
1998-01-05 00:00:00 130. 115. 915. 115. 915. 130.
1998-01-05 06:00:00 140. 125. 900. 125. 900. 140.
1998-01-05 12:00:00 145. 125. 900. 125. 900. 145.
1998-01-05 18:00:00 145. 125. 900. 125. 900. 145.
1998-01-06 00:00:00 145. 125. 900. 125. 900. 145.
1998-01-06 06:00:00 145. 125. 900. 125. 900. 145.
1998-01-06 12:00:00 140. 125. 900. 125. 900. 140.
1998-01-06 18:00:00 135. 125. 900. 125. 900. 135.
1998-01-07 00:00:00 125. 115. 915. 115. 915. 125.
1998-01-07 06:00:00 120. 110. 918. 110. 918. 120.
jtwc_sh nadi wellington neumann
1998-01-07 12:00:00 110. 105. 922. 105. 922. 110.
1998-01-07 18:00:00 105. 95. 930. 95. 930. 105.
1998-01-08 00:00:00 95. 85. 945. 85. 945. 95.
1998-01-08 06:00:00 85. 80. 955. 80. 955. 85.
1998-01-08 12:00:00 70. 70. 965. 70. 965. 70.
1998-01-08 18:00:00 50. 60. 975. 50.
1998-01-09 00:00:00 30. 30.

top of page Links to source data

Source Source file Format
jtwc_sh bsh101998.txt ATCF
nadi RSMC-Nadi-1997-98-BT-Data.txt:Line=117:RON Text table
wellington TC_BT_1967_2006.csv:Line=5775:RON Text table
neumann tracks.sh:Storm=1112:RON:BSH101998:JTWC HURDAT